sensor_id;sensor_type;location;lat;lon;timestamp;P1;durP1;ratioP1;P2;durP2;ratioP2
33006;SDS011;19361;51.598;7.650;2023-09-30T00:03:21;10.05;;;3.63;;
33006;SDS011;19361;51.598;7.650;2023-09-30T00:08:22;8.55;;;3.72;;
33006;SDS011;19361;51.598;7.650;2023-09-30T00:13:22;6.93;;;3.40;;
33006;SDS011;19361;51.598;7.650;2023-09-30T00:18:24;8.02;;;3.90;;
33006;SDS011;19361;51.598;7.650;2023-09-30T00:23:24;11.70;;;3.72;;
33006;SDS011;19361;51.598;7.650;2023-09-30T00:28:25;9.65;;;4.07;;
33006;SDS011;19361;51.598;7.650;2023-09-30T00:33:26;9.27;;;3.65;;
33006;SDS011;19361;51.598;7.650;2023-09-30T00:38:27;7.85;;;3.83;;
33006;SDS011;19361;51.598;7.650;2023-09-30T00:43:27;11.60;;;4.45;;
33006;SDS011;19361;51.598;7.650;2023-09-30T00:48:28;9.32;;;3.83;;
33006;SDS011;19361;51.598;7.650;2023-09-30T00:53:29;6.30;;;4.00;;
33006;SDS011;19361;51.598;7.650;2023-09-30T00:58:30;11.65;;;4.45;;
33006;SDS011;19361;51.598;7.650;2023-09-30T01:03:31;12.27;;;4.45;;
33006;SDS011;19361;51.598;7.650;2023-09-30T01:08:32;11.32;;;4.90;;
33006;SDS011;19361;51.598;7.650;2023-09-30T01:13:34;15.20;;;4.63;;
33006;SDS011;19361;51.598;7.650;2023-09-30T01:18:36;16.38;;;4.80;;
33006;SDS011;19361;51.598;7.650;2023-09-30T01:23:39;9.38;;;4.55;;
33006;SDS011;19361;51.598;7.650;2023-09-30T01:28:40;13.60;;;5.15;;
33006;SDS011;19361;51.598;7.650;2023-09-30T01:33:41;13.95;;;4.90;;
33006;SDS011;19361;51.598;7.650;2023-09-30T01:38:42;11.00;;;5.07;;
33006;SDS011;19361;51.598;7.650;2023-09-30T01:43:42;11.65;;;5.13;;
33006;SDS011;19361;51.598;7.650;2023-09-30T01:48:43;11.77;;;4.85;;
33006;SDS011;19361;51.598;7.650;2023-09-30T01:53:44;15.82;;;5.30;;
33006;SDS011;19361;51.598;7.650;2023-09-30T01:58:44;13.50;;;5.20;;
33006;SDS011;19361;51.598;7.650;2023-09-30T02:03:45;12.23;;;5.65;;
33006;SDS011;19361;51.598;7.650;2023-09-30T02:08:46;12.32;;;5.47;;
33006;SDS011;19361;51.598;7.650;2023-09-30T02:13:47;14.48;;;5.43;;
33006;SDS011;19361;51.598;7.650;2023-09-30T02:18:48;13.00;;;5.00;;
33006;SDS011;19361;51.598;7.650;2023-09-30T02:23:50;13.75;;;4.82;;
33006;SDS011;19361;51.598;7.650;2023-09-30T02:28:54;16.00;;;5.28;;
33006;SDS011;19361;51.598;7.650;2023-09-30T02:33:56;11.75;;;5.00;;
33006;SDS011;19361;51.598;7.650;2023-09-30T02:38:56;15.27;;;5.20;;
33006;SDS011;19361;51.598;7.650;2023-09-30T02:43:57;8.88;;;5.03;;
33006;SDS011;19361;51.598;7.650;2023-09-30T02:49:00;13.65;;;5.95;;
33006;SDS011;19361;51.598;7.650;2023-09-30T02:54:02;10.48;;;4.75;;
33006;SDS011;19361;51.598;7.650;2023-09-30T02:59:04;12.43;;;5.20;;
33006;SDS011;19361;51.598;7.650;2023-09-30T03:04:06;16.88;;;5.50;;
33006;SDS011;19361;51.598;7.650;2023-09-30T03:09:07;13.80;;;4.90;;
33006;SDS011;19361;51.598;7.650;2023-09-30T03:14:10;15.65;;;4.93;;
33006;SDS011;19361;51.598;7.650;2023-09-30T03:19:11;13.30;;;4.60;;
33006;SDS011;19361;51.598;7.650;2023-09-30T03:24:11;12.82;;;4.75;;
33006;SDS011;19361;51.598;7.650;2023-09-30T03:29:12;10.88;;;4.53;;
33006;SDS011;19361;51.598;7.650;2023-09-30T03:34:13;16.10;;;6.35;;
33006;SDS011;19361;51.598;7.650;2023-09-30T03:39:16;14.15;;;4.95;;
33006;SDS011;19361;51.598;7.650;2023-09-30T03:44:24;13.77;;;5.25;;
33006;SDS011;19361;51.598;7.650;2023-09-30T03:49:25;15.85;;;5.05;;
33006;SDS011;19361;51.598;7.650;2023-09-30T03:54:28;16.70;;;6.22;;
33006;SDS011;19361;51.598;7.650;2023-09-30T03:59:29;11.73;;;5.00;;
33006;SDS011;19361;51.598;7.650;2023-09-30T04:04:30;13.75;;;4.88;;
33006;SDS011;19361;51.598;7.650;2023-09-30T04:09:32;11.10;;;5.13;;
33006;SDS011;19361;51.598;7.650;2023-09-30T04:14:33;20.95;;;4.85;;
33006;SDS011;19361;51.598;7.650;2023-09-30T04:19:33;11.35;;;4.57;;
33006;SDS011;19361;51.598;7.650;2023-09-30T04:24:34;11.55;;;4.57;;
33006;SDS011;19361;51.598;7.650;2023-09-30T04:29:35;10.45;;;4.28;;
33006;SDS011;19361;51.598;7.650;2023-09-30T04:34:35;11.77;;;4.85;;
33006;SDS011;19361;51.598;7.650;2023-09-30T04:39:36;13.75;;;4.47;;
33006;SDS011;19361;51.598;7.650;2023-09-30T04:44:37;14.25;;;4.82;;
33006;SDS011;19361;51.598;7.650;2023-09-30T04:49:38;10.80;;;4.65;;
33006;SDS011;19361;51.598;7.650;2023-09-30T04:54:39;10.25;;;4.80;;
33006;SDS011;19361;51.598;7.650;2023-09-30T04:59:39;16.88;;;5.10;;
33006;SDS011;19361;51.598;7.650;2023-09-30T05:04:41;15.18;;;5.13;;
33006;SDS011;19361;51.598;7.650;2023-09-30T05:09:42;19.50;;;6.05;;
33006;SDS011;19361;51.598;7.650;2023-09-30T05:14:43;14.52;;;4.57;;
33006;SDS011;19361;51.598;7.650;2023-09-30T05:19:44;12.45;;;4.93;;
33006;SDS011;19361;51.598;7.650;2023-09-30T05:24:44;12.02;;;4.53;;
33006;SDS011;19361;51.598;7.650;2023-09-30T05:29:45;14.20;;;5.45;;
33006;SDS011;19361;51.598;7.650;2023-09-30T05:34:46;11.98;;;4.75;;
33006;SDS011;19361;51.598;7.650;2023-09-30T05:39:48;12.68;;;5.03;;
33006;SDS011;19361;51.598;7.650;2023-09-30T05:44:48;13.70;;;5.00;;
33006;SDS011;19361;51.598;7.650;2023-09-30T05:49:49;14.18;;;4.65;;
33006;SDS011;19361;51.598;7.650;2023-09-30T05:54:50;11.02;;;4.93;;
33006;SDS011;19361;51.598;7.650;2023-09-30T05:59:51;10.68;;;4.32;;
33006;SDS011;19361;51.598;7.650;2023-09-30T06:04:51;14.63;;;5.10;;
33006;SDS011;19361;51.598;7.650;2023-09-30T06:09:53;11.55;;;5.05;;
33006;SDS011;19361;51.598;7.650;2023-09-30T06:14:54;17.17;;;5.32;;
33006;SDS011;19361;51.598;7.650;2023-09-30T06:19:54;13.65;;;5.57;;
33006;SDS011;19361;51.598;7.650;2023-09-30T06:24:55;18.08;;;6.00;;
33006;SDS011;19361;51.598;7.650;2023-09-30T06:29:56;17.65;;;6.45;;
33006;SDS011;19361;51.598;7.650;2023-09-30T06:34:57;20.65;;;7.70;;
33006;SDS011;19361;51.598;7.650;2023-09-30T06:39:57;19.13;;;7.55;;
33006;SDS011;19361;51.598;7.650;2023-09-30T06:44:58;24.65;;;7.95;;
33006;SDS011;19361;51.598;7.650;2023-09-30T06:50:03;16.17;;;6.88;;
33006;SDS011;19361;51.598;7.650;2023-09-30T06:55:09;18.67;;;6.40;;
33006;SDS011;19361;51.598;7.650;2023-09-30T07:00:11;18.70;;;6.78;;
33006;SDS011;19361;51.598;7.650;2023-09-30T07:05:14;22.05;;;7.93;;
33006;SDS011;19361;51.598;7.650;2023-09-30T07:10:15;19.65;;;7.07;;
33006;SDS011;19361;51.598;7.650;2023-09-30T07:15:15;16.88;;;5.90;;
33006;SDS011;19361;51.598;7.650;2023-09-30T07:20:16;19.00;;;5.85;;
33006;SDS011;19361;51.598;7.650;2023-09-30T07:25:17;13.35;;;5.43;;
33006;SDS011;19361;51.598;7.650;2023-09-30T07:30:18;15.32;;;4.68;;
33006;SDS011;19361;51.598;7.650;2023-09-30T07:35:19;16.13;;;5.10;;
33006;SDS011;19361;51.598;7.650;2023-09-30T07:40:19;15.15;;;4.97;;
33006;SDS011;19361;51.598;7.650;2023-09-30T07:45:21;12.82;;;4.57;;
33006;SDS011;19361;51.598;7.650;2023-09-30T07:50:22;15.45;;;4.53;;
33006;SDS011;19361;51.598;7.650;2023-09-30T07:55:22;15.05;;;4.35;;
33006;SDS011;19361;51.598;7.650;2023-09-30T08:00:23;15.30;;;4.82;;
33006;SDS011;19361;51.598;7.650;2023-09-30T08:05:23;12.23;;;4.57;;
33006;SDS011;19361;51.598;7.650;2023-09-30T08:10:24;12.93;;;4.05;;
33006;SDS011;19361;51.598;7.650;2023-09-30T08:15:25;15.07;;;4.82;;
33006;SDS011;19361;51.598;7.650;2023-09-30T08:20:26;14.23;;;4.63;;
33006;SDS011;19361;51.598;7.650;2023-09-30T08:25:26;17.40;;;5.00;;
33006;SDS011;19361;51.598;7.650;2023-09-30T08:30:27;12.82;;;4.55;;
33006;SDS011;19361;51.598;7.650;2023-09-30T08:35:28;16.85;;;4.72;;
33006;SDS011;19361;51.598;7.650;2023-09-30T08:40:38;11.93;;;4.60;;
33006;SDS011;19361;51.598;7.650;2023-09-30T08:45:39;18.63;;;5.57;;
33006;SDS011;19361;51.598;7.650;2023-09-30T08:50:45;24.20;;;13.00;;
33006;SDS011;19361;51.598;7.650;2023-09-30T08:55:46;17.17;;;6.13;;
33006;SDS011;19361;51.598;7.650;2023-09-30T09:00:53;11.35;;;4.53;;
33006;SDS011;19361;51.598;7.650;2023-09-30T09:05:54;10.10;;;4.05;;
33006;SDS011;19361;51.598;7.650;2023-09-30T09:11:00;10.45;;;4.10;;
33006;SDS011;19361;51.598;7.650;2023-09-30T09:16:06;9.60;;;4.13;;
33006;SDS011;19361;51.598;7.650;2023-09-30T09:21:12;9.23;;;4.30;;
33006;SDS011;19361;51.598;7.650;2023-09-30T09:26:25;9.75;;;3.75;;
33006;SDS011;19361;51.598;7.650;2023-09-30T09:31:28;9.25;;;3.83;;
33006;SDS011;19361;51.598;7.650;2023-09-30T09:41:50;10.25;;;3.83;;
33006;SDS011;19361;51.598;7.650;2023-09-30T09:46:57;10.32;;;3.92;;
33006;SDS011;19361;51.598;7.650;2023-09-30T09:51:58;11.60;;;3.72;;
33006;SDS011;19361;51.598;7.650;2023-09-30T09:57:00;10.35;;;4.15;;
33006;SDS011;19361;51.598;7.650;2023-09-30T10:02:04;10.15;;;3.75;;
33006;SDS011;19361;51.598;7.650;2023-09-30T10:07:16;7.88;;;3.30;;
33006;SDS011;19361;51.598;7.650;2023-09-30T10:17:49;11.43;;;3.65;;
33006;SDS011;19361;51.598;7.650;2023-09-30T10:23:26;7.88;;;3.45;;
33006;SDS011;19361;51.598;7.650;2023-09-30T10:39:00;8.60;;;3.47;;
33006;SDS011;19361;51.598;7.650;2023-09-30T10:44:32;6.43;;;3.25;;
33006;SDS011;19361;51.598;7.650;2023-09-30T10:49:30;7.13;;;3.13;;
33006;SDS011;19361;51.598;7.650;2023-09-30T10:54:35;8.57;;;3.10;;
33006;SDS011;19361;51.598;7.650;2023-09-30T10:59:36;8.88;;;3.33;;
33006;SDS011;19361;51.598;7.650;2023-09-30T11:04:46;7.60;;;3.22;;
33006;SDS011;19361;51.598;7.650;2023-09-30T11:09:47;6.90;;;3.30;;
33006;SDS011;19361;51.598;7.650;2023-09-30T11:14:48;7.00;;;3.03;;
33006;SDS011;19361;51.598;7.650;2023-09-30T11:20:00;8.23;;;2.80;;
33006;SDS011;19361;51.598;7.650;2023-09-30T11:25:00;5.53;;;2.53;;
33006;SDS011;19361;51.598;7.650;2023-09-30T11:30:02;6.57;;;2.65;;
33006;SDS011;19361;51.598;7.650;2023-09-30T11:35:03;5.30;;;2.50;;
33006;SDS011;19361;51.598;7.650;2023-09-30T11:40:12;5.63;;;2.92;;
33006;SDS011;19361;51.598;7.650;2023-09-30T11:45:18;6.20;;;2.92;;
33006;SDS011;19361;51.598;7.650;2023-09-30T11:50:24;9.98;;;3.40;;
33006;SDS011;19361;51.598;7.650;2023-09-30T11:55:25;5.45;;;3.25;;
33006;SDS011;19361;51.598;7.650;2023-09-30T12:00:26;8.90;;;3.20;;
33006;SDS011;19361;51.598;7.650;2023-09-30T12:05:29;9.15;;;3.35;;
33006;SDS011;19361;51.598;7.650;2023-09-30T12:10:30;5.72;;;2.80;;
33006;SDS011;19361;51.598;7.650;2023-09-30T12:15:31;8.05;;;3.25;;
33006;SDS011;19361;51.598;7.650;2023-09-30T12:20:32;6.15;;;3.03;;
33006;SDS011;19361;51.598;7.650;2023-09-30T12:25:33;8.38;;;3.42;;
33006;SDS011;19361;51.598;7.650;2023-09-30T12:30:34;6.40;;;3.15;;
33006;SDS011;19361;51.598;7.650;2023-09-30T12:35:34;7.68;;;3.20;;
33006;SDS011;19361;51.598;7.650;2023-09-30T12:40:35;5.18;;;2.80;;
33006;SDS011;19361;51.598;7.650;2023-09-30T12:45:36;4.80;;;3.00;;
33006;SDS011;19361;51.598;7.650;2023-09-30T12:50:38;9.63;;;3.75;;
33006;SDS011;19361;51.598;7.650;2023-09-30T12:55:39;5.65;;;3.10;;
33006;SDS011;19361;51.598;7.650;2023-09-30T13:00:39;6.45;;;3.33;;
33006;SDS011;19361;51.598;7.650;2023-09-30T13:05:40;8.45;;;2.75;;
33006;SDS011;19361;51.598;7.650;2023-09-30T13:10:41;5.50;;;3.15;;
33006;SDS011;19361;51.598;7.650;2023-09-30T13:15:41;4.18;;;2.50;;
33006;SDS011;19361;51.598;7.650;2023-09-30T13:20:42;4.80;;;2.80;;
33006;SDS011;19361;51.598;7.650;2023-09-30T13:25:43;6.07;;;2.72;;
33006;SDS011;19361;51.598;7.650;2023-09-30T13:30:43;4.82;;;2.67;;
33006;SDS011;19361;51.598;7.650;2023-09-30T13:35:45;6.63;;;3.20;;
33006;SDS011;19361;51.598;7.650;2023-09-30T13:40:46;5.50;;;2.75;;
33006;SDS011;19361;51.598;7.650;2023-09-30T13:45:47;3.85;;;2.42;;
33006;SDS011;19361;51.598;7.650;2023-09-30T13:50:48;6.80;;;2.75;;
33006;SDS011;19361;51.598;7.650;2023-09-30T13:55:49;7.88;;;2.55;;
33006;SDS011;19361;51.598;7.650;2023-09-30T14:00:50;4.10;;;2.80;;
33006;SDS011;19361;51.598;7.650;2023-09-30T14:05:52;7.05;;;4.35;;
33006;SDS011;19361;51.598;7.650;2023-09-30T14:10:53;8.68;;;3.55;;
33006;SDS011;19361;51.598;7.650;2023-09-30T14:15:53;4.82;;;2.70;;
33006;SDS011;19361;51.598;7.650;2023-09-30T14:20:54;6.75;;;3.35;;
33006;SDS011;19361;51.598;7.650;2023-09-30T14:25:55;6.45;;;3.58;;
33006;SDS011;19361;51.598;7.650;2023-09-30T14:30:56;11.73;;;6.28;;
33006;SDS011;19361;51.598;7.650;2023-09-30T14:35:56;7.32;;;4.03;;
33006;SDS011;19361;51.598;7.650;2023-09-30T14:40:57;9.00;;;6.18;;
33006;SDS011;19361;51.598;7.650;2023-09-30T14:46:00;8.38;;;4.57;;
33006;SDS011;19361;51.598;7.650;2023-09-30T14:51:03;10.98;;;3.92;;
33006;SDS011;19361;51.598;7.650;2023-09-30T14:56:13;6.53;;;3.63;;
33006;SDS011;19361;51.598;7.650;2023-09-30T15:01:18;5.85;;;3.90;;
33006;SDS011;19361;51.598;7.650;2023-09-30T15:06:20;8.05;;;4.68;;
33006;SDS011;19361;51.598;7.650;2023-09-30T15:11:24;5.32;;;3.08;;
33006;SDS011;19361;51.598;7.650;2023-09-30T15:16:25;6.50;;;3.08;;
33006;SDS011;19361;51.598;7.650;2023-09-30T15:21:25;4.88;;;3.15;;
33006;SDS011;19361;51.598;7.650;2023-09-30T15:26:26;4.32;;;2.70;;
33006;SDS011;19361;51.598;7.650;2023-09-30T15:31:27;6.00;;;3.08;;
33006;SDS011;19361;51.598;7.650;2023-09-30T15:36:29;4.43;;;3.00;;
33006;SDS011;19361;51.598;7.650;2023-09-30T15:41:31;5.13;;;3.42;;
33006;SDS011;19361;51.598;7.650;2023-09-30T15:46:32;7.22;;;3.80;;
33006;SDS011;19361;51.598;7.650;2023-09-30T15:51:33;7.72;;;4.32;;
33006;SDS011;19361;51.598;7.650;2023-09-30T15:56:33;6.20;;;3.30;;
33006;SDS011;19361;51.598;7.650;2023-09-30T16:01:34;7.03;;;3.05;;
33006;SDS011;19361;51.598;7.650;2023-09-30T16:06:35;3.88;;;3.00;;
33006;SDS011;19361;51.598;7.650;2023-09-30T16:11:35;4.53;;;2.97;;
33006;SDS011;19361;51.598;7.650;2023-09-30T16:16:36;5.93;;;2.90;;
33006;SDS011;19361;51.598;7.650;2023-09-30T16:21:37;5.97;;;3.83;;
33006;SDS011;19361;51.598;7.650;2023-09-30T16:26:37;5.45;;;4.40;;
33006;SDS011;19361;51.598;7.650;2023-09-30T16:31:38;10.52;;;5.25;;
33006;SDS011;19361;51.598;7.650;2023-09-30T16:36:39;6.88;;;4.88;;
33006;SDS011;19361;51.598;7.650;2023-09-30T16:41:39;7.07;;;4.25;;
33006;SDS011;19361;51.598;7.650;2023-09-30T16:46:40;15.40;;;7.80;;
33006;SDS011;19361;51.598;7.650;2023-09-30T16:51:41;8.57;;;4.95;;
33006;SDS011;19361;51.598;7.650;2023-09-30T16:56:41;12.77;;;5.07;;
33006;SDS011;19361;51.598;7.650;2023-09-30T17:01:42;10.57;;;4.65;;
33006;SDS011;19361;51.598;7.650;2023-09-30T17:06:43;12.30;;;6.07;;
33006;SDS011;19361;51.598;7.650;2023-09-30T17:11:44;8.95;;;5.15;;
33006;SDS011;19361;51.598;7.650;2023-09-30T17:16:45;7.15;;;4.53;;
33006;SDS011;19361;51.598;7.650;2023-09-30T17:21:45;11.40;;;5.22;;
33006;SDS011;19361;51.598;7.650;2023-09-30T17:26:46;8.25;;;5.05;;
33006;SDS011;19361;51.598;7.650;2023-09-30T17:31:47;8.45;;;5.40;;
33006;SDS011;19361;51.598;7.650;2023-09-30T17:36:48;9.48;;;4.90;;
33006;SDS011;19361;51.598;7.650;2023-09-30T17:41:49;8.98;;;5.10;;
33006;SDS011;19361;51.598;7.650;2023-09-30T17:46:50;11.35;;;4.35;;
33006;SDS011;19361;51.598;7.650;2023-09-30T17:51:51;5.85;;;3.50;;
33006;SDS011;19361;51.598;7.650;2023-09-30T17:56:51;6.07;;;3.65;;
33006;SDS011;19361;51.598;7.650;2023-09-30T18:01:52;6.38;;;3.90;;
33006;SDS011;19361;51.598;7.650;2023-09-30T18:06:53;11.55;;;4.82;;
33006;SDS011;19361;51.598;7.650;2023-09-30T18:11:53;9.50;;;4.78;;
33006;SDS011;19361;51.598;7.650;2023-09-30T18:16:54;11.13;;;4.57;;
33006;SDS011;19361;51.598;7.650;2023-09-30T18:21:55;12.15;;;4.70;;
33006;SDS011;19361;51.598;7.650;2023-09-30T18:26:55;11.73;;;5.50;;
33006;SDS011;19361;51.598;7.650;2023-09-30T18:31:56;11.07;;;5.78;;
33006;SDS011;19361;51.598;7.650;2023-09-30T18:36:57;7.38;;;4.07;;
33006;SDS011;19361;51.598;7.650;2023-09-30T18:41:58;6.35;;;4.13;;
33006;SDS011;19361;51.598;7.650;2023-09-30T18:46:58;9.82;;;4.82;;
33006;SDS011;19361;51.598;7.650;2023-09-30T18:51:59;9.23;;;5.32;;
33006;SDS011;19361;51.598;7.650;2023-09-30T18:57:00;13.13;;;6.57;;
33006;SDS011;19361;51.598;7.650;2023-09-30T19:02:01;13.40;;;5.93;;
33006;SDS011;19361;51.598;7.650;2023-09-30T19:07:03;6.05;;;4.60;;
33006;SDS011;19361;51.598;7.650;2023-09-30T19:12:06;7.38;;;4.25;;
33006;SDS011;19361;51.598;7.650;2023-09-30T19:17:07;8.07;;;4.43;;
33006;SDS011;19361;51.598;7.650;2023-09-30T19:22:07;12.07;;;5.88;;
33006;SDS011;19361;51.598;7.650;2023-09-30T19:27:08;12.02;;;6.90;;
33006;SDS011;19361;51.598;7.650;2023-09-30T19:32:10;10.00;;;5.50;;
33006;SDS011;19361;51.598;7.650;2023-09-30T19:37:10;11.07;;;4.85;;
33006;SDS011;19361;51.598;7.650;2023-09-30T19:42:12;7.20;;;4.20;;
33006;SDS011;19361;51.598;7.650;2023-09-30T19:47:13;8.30;;;4.38;;
33006;SDS011;19361;51.598;7.650;2023-09-30T19:52:13;9.93;;;5.15;;
33006;SDS011;19361;51.598;7.650;2023-09-30T19:57:14;7.65;;;5.63;;
33006;SDS011;19361;51.598;7.650;2023-09-30T20:02:14;9.40;;;5.85;;
33006;SDS011;19361;51.598;7.650;2023-09-30T20:07:16;13.38;;;5.80;;
33006;SDS011;19361;51.598;7.650;2023-09-30T20:12:17;9.75;;;5.63;;
33006;SDS011;19361;51.598;7.650;2023-09-30T20:17:18;8.90;;;5.20;;
33006;SDS011;19361;51.598;7.650;2023-09-30T20:22:19;6.55;;;4.63;;
33006;SDS011;19361;51.598;7.650;2023-09-30T20:27:20;9.02;;;5.28;;
33006;SDS011;19361;51.598;7.650;2023-09-30T20:32:22;7.97;;;5.47;;
33006;SDS011;19361;51.598;7.650;2023-09-30T20:37:22;11.45;;;5.47;;
33006;SDS011;19361;51.598;7.650;2023-09-30T20:42:23;9.35;;;5.35;;
33006;SDS011;19361;51.598;7.650;2023-09-30T20:47:24;10.32;;;6.20;;
33006;SDS011;19361;51.598;7.650;2023-09-30T20:52:24;15.82;;;7.03;;
33006;SDS011;19361;51.598;7.650;2023-09-30T20:57:25;10.80;;;6.97;;
33006;SDS011;19361;51.598;7.650;2023-09-30T21:02:26;9.27;;;6.50;;
33006;SDS011;19361;51.598;7.650;2023-09-30T21:07:26;9.93;;;5.15;;
33006;SDS011;19361;51.598;7.650;2023-09-30T21:12:27;7.03;;;4.78;;
33006;SDS011;19361;51.598;7.650;2023-09-30T21:17:28;8.82;;;4.50;;
33006;SDS011;19361;51.598;7.650;2023-09-30T21:22:29;7.57;;;4.78;;
33006;SDS011;19361;51.598;7.650;2023-09-30T21:27:30;7.55;;;4.60;;
33006;SDS011;19361;51.598;7.650;2023-09-30T21:32:31;10.10;;;5.00;;
33006;SDS011;19361;51.598;7.650;2023-09-30T21:37:32;6.40;;;4.20;;
33006;SDS011;19361;51.598;7.650;2023-09-30T21:42:34;15.25;;;4.85;;
33006;SDS011;19361;51.598;7.650;2023-09-30T21:47:34;8.23;;;4.45;;
33006;SDS011;19361;51.598;7.650;2023-09-30T21:52:35;6.78;;;4.40;;
33006;SDS011;19361;51.598;7.650;2023-09-30T21:57:36;7.90;;;4.65;;
33006;SDS011;19361;51.598;7.650;2023-09-30T22:02:37;6.28;;;4.20;;
33006;SDS011;19361;51.598;7.650;2023-09-30T22:07:39;8.50;;;5.30;;
33006;SDS011;19361;51.598;7.650;2023-09-30T22:12:39;7.85;;;5.63;;
33006;SDS011;19361;51.598;7.650;2023-09-30T22:17:40;9.00;;;6.22;;
33006;SDS011;19361;51.598;7.650;2023-09-30T22:22:42;11.25;;;6.28;;
33006;SDS011;19361;51.598;7.650;2023-09-30T22:27:42;10.30;;;5.93;;
33006;SDS011;19361;51.598;7.650;2023-09-30T22:32:43;9.48;;;6.30;;
33006;SDS011;19361;51.598;7.650;2023-09-30T22:37:44;10.20;;;6.30;;
33006;SDS011;19361;51.598;7.650;2023-09-30T22:42:45;11.93;;;6.70;;
33006;SDS011;19361;51.598;7.650;2023-09-30T22:47:47;8.57;;;6.20;;
33006;SDS011;19361;51.598;7.650;2023-09-30T22:52:50;9.15;;;6.40;;
33006;SDS011;19361;51.598;7.650;2023-09-30T22:57:51;11.02;;;6.95;;
33006;SDS011;19361;51.598;7.650;2023-09-30T23:02:55;10.20;;;6.63;;
33006;SDS011;19361;51.598;7.650;2023-09-30T23:07:56;10.27;;;7.10;;
33006;SDS011;19361;51.598;7.650;2023-09-30T23:12:57;7.70;;;5.93;;
33006;SDS011;19361;51.598;7.650;2023-09-30T23:17:58;10.40;;;6.18;;
33006;SDS011;19361;51.598;7.650;2023-09-30T23:22:59;9.13;;;5.82;;
33006;SDS011;19361;51.598;7.650;2023-09-30T23:28:00;8.25;;;6.13;;
33006;SDS011;19361;51.598;7.650;2023-09-30T23:33:01;10.32;;;5.65;;
33006;SDS011;19361;51.598;7.650;2023-09-30T23:38:05;7.22;;;5.32;;
33006;SDS011;19361;51.598;7.650;2023-09-30T23:43:07;7.10;;;5.35;;
33006;SDS011;19361;51.598;7.650;2023-09-30T23:48:08;8.63;;;5.47;;
33006;SDS011;19361;51.598;7.650;2023-09-30T23:53:09;7.38;;;4.85;;
33006;SDS011;19361;51.598;7.650;2023-09-30T23:58:10;6.85;;;5.45;;
